Time;durP1;ratioP1;P1;durP2;ratioP2;P2;SDS_P1;SDS_P2;PMS_P1;PMS_P2;Temp;Humidity;BMP_temperature;BMP_pressure;BME280_temperature;BME280_humidity;BME280_pressure;Samples;Min_cycle;Max_cycle;Signal;HPM_P1;HPM_P2
2022/02/28 00:01:42;;;;;;;9.77;7.20;;;6.50;68.30;;;;;;5041710;28;20192;-67
2022/02/28 00:04:07;;;;;;;9.40;6.97;;;6.50;68.40;;;;;;5038208;28;20212;-67
2022/02/28 00:06:33;;;;;;;7.77;6.97;;;6.40;68.30;;;;;;5038084;28;20192;-67
2022/02/28 00:08:59;;;;;;;9.60;7.20;;;6.40;68.50;;;;;;5038802;28;20212;-66
2022/02/28 00:11:24;;;;;;;10.73;7.50;;;6.10;68.70;;;;;;5042357;28;20642;-67
2022/02/28 00:13:50;;;;;;;7.50;6.70;;;5.90;70.00;;;;;;5039600;28;20195;-67
2022/02/28 00:16:15;;;;;;;9.57;7.50;;;6.20;70.00;;;;;;5020542;28;20707;-67
2022/02/28 00:18:41;;;;;;;8.13;6.77;;;5.90;70.10;;;;;;5039153;28;20191;-66
2022/02/28 00:21:07;;;;;;;8.53;6.37;;;6.00;70.90;;;;;;5042150;28;20203;-67
2022/02/28 00:23:32;;;;;;;8.20;6.90;;;6.20;70.50;;;;;;5036100;28;20285;-67
2022/02/28 00:25:58;;;;;;;7.73;6.77;;;6.30;70.30;;;;;;5036544;28;20211;-66
2022/02/28 00:28:24;;;;;;;12.67;7.60;;;6.20;70.70;;;;;;5039421;28;20935;-66
2022/02/28 00:30:50;;;;;;;10.30;7.00;;;6.10;71.10;;;;;;5022011;28;20265;-67
2022/02/28 00:33:15;;;;;;;10.13;6.50;;;6.30;71.10;;;;;;5038157;28;20200;-66
2022/02/28 00:35:41;;;;;;;10.20;7.73;;;6.20;70.80;;;;;;5038355;28;20194;-66
2022/02/28 00:38:08;;;;;;;10.13;7.87;;;6.30;71.00;;;;;;5036278;28;20195;-66
2022/02/28 00:40:34;;;;;;;10.17;7.70;;;6.40;70.60;;;;;;5037033;28;20206;-66
2022/02/28 00:43:00;;;;;;;9.10;7.40;;;6.10;71.50;;;;;;5036982;28;20658;-66
2022/02/28 00:45:26;;;;;;;9.60;7.23;;;6.20;71.80;;;;;;5039809;28;20504;-67
2022/02/28 00:47:52;;;;;;;10.63;6.80;;;6.30;71.30;;;;;;5041250;28;20185;-67
2022/02/28 00:50:18;;;;;;;8.37;6.83;;;6.20;72.00;;;;;;5040621;28;20527;-67
2022/02/28 00:52:43;;;;;;;12.77;7.87;;;6.30;72.00;;;;;;5030592;28;20215;-66
2022/02/28 00:55:11;;;;;;;8.57;7.23;;;6.30;71.40;;;;;;5043192;28;20188;-67
2022/02/28 00:57:37;;;;;;;7.80;6.13;;;6.00;72.80;;;;;;5039913;28;20266;-66
2022/02/28 01:00:09;;;;;;;8.80;6.43;;;6.10;73.30;;;;;;5044467;28;20453;-67
2022/02/28 01:02:35;;;;;;;8.70;6.90;;;6.10;72.60;;;;;;5038093;28;20509;-67
2022/02/28 01:05:01;;;;;;;9.70;6.63;;;6.30;72.80;;;;;;5044285;28;20458;-67
2022/02/28 01:07:26;;;;;;;9.77;7.17;;;6.10;73.20;;;;;;5041925;28;20195;-66
2022/02/28 01:09:52;;;;;;;12.63;7.20;;;6.00;73.30;;;;;;5042176;28;20211;-67
2022/02/28 01:12:18;;;;;;;9.63;6.53;;;6.10;73.80;;;;;;5042427;28;20192;-67
2022/02/28 01:14:44;;;;;;;8.93;7.37;;;6.10;73.70;;;;;;5041214;28;20195;-67
2022/02/28 01:17:09;;;;;;;8.90;7.10;;;6.10;73.20;;;;;;5043263;28;20430;-67
2022/02/28 01:19:35;;;;;;;12.63;6.67;;;6.00;74.10;;;;;;5041371;28;20679;-66
2022/02/28 01:22:01;;;;;;;9.80;7.27;;;5.90;74.80;;;;;;5042621;28;20196;-66
2022/02/28 01:24:27;;;;;;;8.23;6.93;;;5.80;75.20;;;;;;5042948;28;20230;-67
2022/02/28 01:26:52;;;;;;;9.17;7.03;;;5.80;75.80;;;;;;5040481;28;20434;-67
2022/02/28 01:29:18;;;;;;;7.73;6.70;;;5.90;75.50;;;;;;5024859;28;20216;-67
2022/02/28 01:31:44;;;;;;;8.97;7.03;;;5.70;75.90;;;;;;5027427;28;20187;-67
2022/02/28 01:34:10;;;;;;;11.80;7.67;;;5.70;76.60;;;;;;5040479;28;20211;-68
2022/02/28 01:36:35;;;;;;;8.60;6.80;;;5.70;77.40;;;;;;5042647;28;20438;-67
2022/02/28 01:39:02;;;;;;;8.80;7.07;;;5.80;77.40;;;;;;5044642;28;20220;-67
2022/02/28 01:41:28;;;;;;;10.40;7.63;;;5.90;77.40;;;;;;5042211;28;20778;-67
2022/02/28 01:43:53;;;;;;;9.23;6.77;;;5.70;77.70;;;;;;5041680;28;20476;-67
2022/02/28 01:46:19;;;;;;;11.00;7.60;;;5.60;78.90;;;;;;5044150;28;20188;-67
2022/02/28 01:48:44;;;;;;;11.00;7.20;;;5.40;79.10;;;;;;5041295;28;20238;-67
2022/02/28 01:51:10;;;;;;;11.13;7.67;;;5.40;80.80;;;;;;5040986;28;20223;-67
2022/02/28 01:53:36;;;;;;;11.77;7.17;;;5.50;80.10;;;;;;5043835;28;20187;-67
2022/02/28 01:56:02;;;;;;;9.87;6.90;;;5.60;79.90;;;;;;5038394;28;20253;-67
2022/02/28 01:58:38;;;;;;;8.60;6.43;;;5.70;79.40;;;;;;5040281;28;20200;-67
2022/02/28 02:01:05;;;;;;;7.07;6.13;;;5.60;79.50;;;;;;5040235;28;20445;-67
2022/02/28 02:03:31;;;;;;;10.37;6.57;;;5.60;80.30;;;;;;5041228;28;20462;-67
2022/02/28 02:05:57;;;;;;;7.37;6.60;;;5.60;80.40;;;;;;5039694;28;20442;-66
2022/02/28 02:08:23;;;;;;;11.80;8.10;;;5.40;81.20;;;;;;5040338;28;20279;-66
2022/02/28 02:10:48;;;;;;;12.20;7.50;;;5.40;82.40;;;;;;5039640;28;20199;-66
2022/02/28 02:13:14;;;;;;;9.00;6.83;;;5.30;82.10;;;;;;5039452;28;20661;-66
2022/02/28 02:15:43;;;;;;;12.20;6.90;;;5.50;82.80;;;;;;5040415;28;20191;-67
2022/02/28 02:18:09;;;;;;;10.30;7.00;;;5.40;83.10;;;;;;5037653;28;20548;-67
2022/02/28 02:20:37;;;;;;;10.03;7.10;;;5.40;83.60;;;;;;5040444;28;20529;-67
2022/02/28 02:23:07;;;;;;;8.23;7.07;;;5.50;83.50;;;;;;5042332;28;20200;-67
2022/02/28 02:25:34;;;;;;;8.63;6.80;;;5.60;83.50;;;;;;5039415;28;20790;-67
2022/02/28 02:28:00;;;;;;;12.87;8.30;;;5.60;83.10;;;;;;5041104;28;20438;-67
2022/02/28 02:30:27;;;;;;;11.63;7.03;;;5.70;83.30;;;;;;5041923;28;20465;-68
2022/02/28 02:32:53;;;;;;;9.67;6.90;;;5.70;83.10;;;;;;5038520;28;20439;-67
2022/02/28 02:35:18;;;;;;;10.80;7.20;;;5.70;82.90;;;;;;5039659;28;20453;-67
2022/02/28 02:37:44;;;;;;;7.77;6.00;;;5.70;83.50;;;;;;5041228;28;20566;-67
2022/02/28 02:40:10;;;;;;;12.63;7.97;;;5.60;83.30;;;;;;5040333;28;20211;-67
2022/02/28 02:42:36;;;;;;;9.63;6.93;;;5.50;83.60;;;;;;5041123;28;20212;-67
2022/02/28 02:45:02;;;;;;;8.33;6.67;;;5.40;84.80;;;;;;5038841;28;20435;-66
2022/02/28 02:47:28;;;;;;;10.63;6.23;;;5.50;85.30;;;;;;5039141;28;20172;-67
2022/02/28 02:49:53;;;;;;;8.70;6.83;;;5.50;85.00;;;;;;5039908;28;20434;-66
2022/02/28 02:52:19;;;;;;;9.03;6.53;;;5.10;86.30;;;;;;5041932;28;20185;-67
2022/02/28 02:54:44;;;;;;;10.77;8.30;;;5.20;87.40;;;;;;5038701;28;20194;-67
2022/02/28 02:57:10;;;;;;;11.87;7.40;;;5.30;87.20;;;;;;5041111;28;20236;-67
2022/02/28 02:59:36;;;;;;;13.80;7.00;;;5.40;87.20;;;;;;5023458;28;20689;-66
2022/02/28 03:02:01;;;;;;;10.13;7.20;;;5.40;86.90;;;;;;5039346;28;20236;-66
2022/02/28 03:04:27;;;;;;;10.70;7.80;;;5.20;87.90;;;;;;5040752;28;20275;-65
2022/02/28 03:06:52;;;;;;;9.77;7.50;;;5.30;88.40;;;;;;5037972;28;20307;-67
2022/02/28 03:09:18;;;;;;;8.43;7.23;;;5.10;88.90;;;;;;5042450;28;20210;-67
2022/02/28 03:11:45;;;;;;;10.23;7.80;;;5.20;89.20;;;;;;5041176;28;20185;-67
2022/02/28 03:14:11;;;;;;;10.70;7.60;;;5.20;90.00;;;;;;5039186;28;20192;-66
2022/02/28 03:16:37;;;;;;;8.97;7.00;;;5.20;89.20;;;;;;5038141;28;20946;-67
2022/02/28 03:19:04;;;;;;;11.87;7.77;;;5.30;89.30;;;;;;5040818;28;20839;-67
2022/02/28 03:21:29;;;;;;;9.50;7.20;;;5.30;89.30;;;;;;5037271;28;21389;-67
2022/02/28 03:23:55;;;;;;;15.83;11.37;;;5.20;90.00;;;;;;5038923;28;20520;-67
2022/02/28 03:26:21;;;;;;;10.97;7.57;;;5.10;90.30;;;;;;5038998;28;20180;-66
2022/02/28 03:28:46;;;;;;;8.53;7.17;;;5.20;90.30;;;;;;5041529;28;20226;-67
2022/02/28 03:31:12;;;;;;;8.80;6.70;;;5.20;90.50;;;;;;5038335;28;20184;-67
2022/02/28 03:33:38;;;;;;;10.17;7.17;;;5.10;90.50;;;;;;5040640;28;20253;-67
2022/02/28 03:36:04;;;;;;;9.17;6.87;;;4.90;91.10;;;;;;5038039;28;20201;-68
2022/02/28 03:38:30;;;;;;;10.83;7.07;;;4.80;91.50;;;;;;5040106;28;20253;-67
2022/02/28 03:40:55;;;;;;;12.00;7.63;;;4.80;92.00;;;;;;5039193;28;20450;-67
2022/02/28 03:43:21;;;;;;;11.53;8.30;;;4.90;91.80;;;;;;5037284;28;20214;-68
2022/02/28 03:45:47;;;;;;;14.47;8.23;;;5.00;91.90;;;;;;5040218;28;20231;-67
2022/02/28 03:48:13;;;;;;;11.13;7.43;;;5.00;92.00;;;;;;5039531;28;20226;-68
2022/02/28 03:50:40;;;;;;;9.60;7.07;;;4.90;92.20;;;;;;5035454;28;20704;-68
2022/02/28 03:53:05;;;;;;;8.60;7.10;;;5.00;92.20;;;;;;5025502;28;20460;-67
2022/02/28 03:55:31;;;;;;;9.27;7.73;;;5.00;92.40;;;;;;5037877;28;20657;-68
2022/02/28 03:57:57;;;;;;;9.20;7.20;;;4.80;92.70;;;;;;5040053;28;20196;-67
2022/02/28 04:00:22;;;;;;;10.57;7.13;;;4.80;93.00;;;;;;5038609;28;20592;-67
2022/02/28 04:02:48;;;;;;;11.17;7.97;;;4.80;93.20;;;;;;5037862;28;20258;-66
2022/02/28 04:05:16;;;;;;;10.83;8.70;;;4.80;93.40;;;;;;5040655;28;20221;-67
2022/02/28 04:07:43;;;;;;;11.13;7.53;;;4.80;93.60;;;;;;5039903;28;20236;-66
2022/02/28 04:10:12;;;;;;;10.57;7.07;;;4.80;93.30;;;;;;5039722;28;20446;-66
2022/02/28 04:12:37;;;;;;;9.33;7.33;;;4.80;93.70;;;;;;5041254;28;20426;-67
2022/02/28 04:15:04;;;;;;;10.20;7.13;;;4.80;93.80;;;;;;5037282;28;20510;-66
2022/02/28 04:17:29;;;;;;;10.10;7.60;;;4.60;94.10;;;;;;5038827;28;20636;-65
2022/02/28 04:19:55;;;;;;;8.67;7.07;;;4.70;94.10;;;;;;5043169;28;20486;-65
2022/02/28 04:22:22;;;;;;;10.60;7.93;;;4.80;93.90;;;;;;5042011;28;20213;-66
2022/02/28 04:24:47;;;;;;;10.13;7.73;;;4.80;94.00;;;;;;5043173;28;20187;-66
2022/02/28 04:27:13;;;;;;;15.43;8.63;;;4.90;94.00;;;;;;5043427;28;20947;-67
2022/02/28 04:29:39;;;;;;;11.10;7.63;;;4.90;93.90;;;;;;5044350;28;20203;-66
2022/02/28 04:32:05;;;;;;;12.23;7.60;;;4.90;93.90;;;;;;5044684;28;20218;-66
2022/02/28 04:34:32;;;;;;;13.63;7.90;;;4.80;94.20;;;;;;5041635;28;20195;-66
2022/02/28 04:36:58;;;;;;;9.33;7.07;;;4.90;94.30;;;;;;5042420;28;20434;-66
2022/02/28 04:39:24;;;;;;;13.00;8.37;;;4.80;94.30;;;;;;5019958;28;20454;-66
2022/02/28 04:41:49;;;;;;;10.07;7.67;;;5.00;94.20;;;;;;5043293;28;20199;-67
2022/02/28 04:44:15;;;;;;;12.30;7.90;;;4.90;94.00;;;;;;5041198;28;20215;-67
2022/02/28 04:46:41;;;;;;;14.63;8.70;;;4.80;94.40;;;;;;5041855;28;20265;-67
2022/02/28 04:49:06;;;;;;;9.77;7.23;;;4.80;94.40;;;;;;5043541;28;20219;-67
2022/02/28 04:51:32;;;;;;;13.13;8.40;;;4.80;94.00;;;;;;5043398;28;20196;-67
2022/02/28 04:53:58;;;;;;;10.10;7.10;;;4.80;94.20;;;;;;5041446;28;20184;-67
2022/02/28 04:56:23;;;;;;;14.03;8.53;;;4.80;94.30;;;;;;5041026;28;20192;-66
2022/02/28 04:58:49;;;;;;;10.83;7.70;;;4.80;94.10;;;;;;5045104;28;20348;-66
2022/02/28 05:01:14;;;;;;;9.57;7.83;;;4.90;94.00;;;;;;5042740;28;20189;-66
2022/02/28 05:03:40;;;;;;;12.30;8.53;;;4.70;93.60;;;;;;5042697;28;20232;-67
2022/02/28 05:06:06;;;;;;;12.43;8.03;;;4.60;94.20;;;;;;5043325;28;20192;-67
2022/02/28 05:08:31;;;;;;;14.93;8.70;;;4.70;94.50;;;;;;5027645;28;20188;-67
2022/02/28 05:10:57;;;;;;;11.93;8.60;;;4.70;94.60;;;;;;5043438;28;20195;-68
2022/02/28 05:13:23;;;;;;;11.00;8.43;;;4.80;94.30;;;;;;5043535;28;22348;-67
2022/02/28 05:15:49;;;;;;;16.10;9.13;;;4.70;94.10;;;;;;5044806;28;20799;-66
2022/02/28 05:18:14;;;;;;;13.17;9.30;;;4.50;94.30;;;;;;5042917;28;20529;-67
2022/02/28 05:20:40;;;;;;;10.70;8.13;;;4.50;94.50;;;;;;5041105;28;20743;-67
2022/02/28 05:23:06;;;;;;;10.73;8.33;;;4.40;94.80;;;;;;5043734;28;20215;-67
2022/02/28 05:25:31;;;;;;;12.07;8.40;;;4.40;94.80;;;;;;5042812;28;20191;-66
2022/02/28 05:27:57;;;;;;;11.77;8.47;;;4.60;94.30;;;;;;5042247;28;20265;-67
2022/02/28 05:30:22;;;;;;;10.90;8.30;;;4.60;94.40;;;;;;5041014;28;20204;-67
2022/02/28 05:32:48;;;;;;;11.67;8.80;;;4.70;94.40;;;;;;5040909;28;20282;-67
2022/02/28 05:35:14;;;;;;;12.30;8.67;;;4.60;94.30;;;;;;5042605;28;20196;-67
2022/02/28 05:37:41;;;;;;;11.63;9.00;;;4.40;94.70;;;;;;5041749;28;20230;-67
2022/02/28 05:40:09;;;;;;;13.80;9.00;;;4.30;95.00;;;;;;5040041;28;20239;-67
2022/02/28 05:42:35;;;;;;;11.27;8.70;;;4.40;94.90;;;;;;5044182;28;20524;-68
2022/02/28 05:45:02;;;;;;;15.30;8.93;;;4.60;94.80;;;;;;5040859;28;20510;-67
2022/02/28 05:47:27;;;;;;;13.67;9.40;;;4.50;94.70;;;;;;5041942;28;20434;-67
2022/02/28 05:49:53;;;;;;;15.17;8.90;;;4.50;95.10;;;;;;5041618;28;21403;-67
2022/02/28 05:52:19;;;;;;;10.60;8.67;;;4.50;94.80;;;;;;5041818;28;20193;-67
2022/02/28 05:54:44;;;;;;;9.40;8.07;;;4.50;95.00;;;;;;5043250;28;20680;-66
2022/02/28 05:57:10;;;;;;;16.40;8.80;;;4.50;95.10;;;;;;5041564;28;20214;-66
2022/02/28 05:59:35;;;;;;;11.63;8.47;;;4.60;94.90;;;;;;5040321;28;21100;-66
2022/02/28 06:02:01;;;;;;;12.50;8.93;;;4.70;94.80;;;;;;5041645;28;20227;-66
2022/02/28 06:04:27;;;;;;;12.57;8.77;;;4.60;94.90;;;;;;5040908;28;20605;-67
2022/02/28 06:06:52;;;;;;;12.23;8.93;;;4.60;95.10;;;;;;5041731;28;20226;-67
2022/02/28 06:09:18;;;;;;;14.03;8.40;;;4.50;95.40;;;;;;5024234;28;20214;-67
2022/02/28 06:11:44;;;;;;;12.07;7.70;;;4.40;96.20;;;;;;5040325;28;20184;-67
2022/02/28 06:14:09;;;;;;;10.50;8.13;;;4.50;95.90;;;;;;5041248;28;20233;-67
2022/02/28 06:16:38;;;;;;;11.10;8.70;;;4.40;95.70;;;;;;5039799;28;20884;-67
2022/02/28 06:19:04;;;;;;;10.80;7.90;;;4.60;95.80;;;;;;5040503;28;20203;-67
2022/02/28 06:21:30;;;;;;;14.00;9.40;;;4.40;95.80;;;;;;5041754;28;20802;-67
2022/02/28 06:23:56;;;;;;;11.40;9.87;;;4.20;96.20;;;;;;5040216;28;20458;-68
2022/02/28 06:26:21;;;;;;;21.00;9.53;;;4.40;96.50;;;;;;5040171;28;20187;-67
2022/02/28 06:28:47;;;;;;;13.80;9.63;;;4.40;96.60;;;;;;5042782;28;20215;-67
2022/02/28 06:31:13;;;;;;;12.60;8.80;;;4.40;96.20;;;;;;5041960;28;20935;-67
2022/02/28 06:33:38;;;;;;;11.17;8.77;;;4.50;96.40;;;;;;5039452;28;20202;-67
2022/02/28 06:36:04;;;;;;;12.97;8.10;;;4.50;96.10;;;;;;5040100;28;20193;-67
2022/02/28 06:38:30;;;;;;;15.50;9.77;;;4.50;96.00;;;;;;5040598;28;20289;-68
2022/02/28 06:40:56;;;;;;;12.77;8.60;;;4.40;96.20;;;;;;5040030;28;20855;-68
2022/02/28 06:43:24;;;;;;;13.07;8.70;;;4.40;96.40;;;;;;5040861;28;20282;-68
2022/02/28 06:45:51;;;;;;;19.07;10.90;;;4.30;96.40;;;;;;5041430;28;20203;-68
2022/02/28 06:48:17;;;;;;;10.60;7.90;;;4.40;96.30;;;;;;5040987;28;20434;-68
2022/02/28 06:50:45;;;;;;;14.10;9.33;;;4.40;96.20;;;;;;5040042;28;20446;-68
2022/02/28 06:53:11;;;;;;;12.70;8.63;;;4.30;96.30;;;;;;5042593;28;20439;-68
2022/02/28 06:55:40;;;;;;;17.07;9.17;;;4.30;96.70;;;;;;5040368;28;20441;-68
2022/02/28 06:58:07;;;;;;;14.03;10.50;;;4.40;96.50;;;;;;5040032;28;21006;-68
2022/02/28 07:00:32;;;;;;;12.93;8.90;;;4.30;96.60;;;;;;5026280;28;21254;-68
2022/02/28 07:02:58;;;;;;;17.23;8.97;;;4.40;96.60;;;;;;5041012;28;20466;-67
2022/02/28 07:05:24;;;;;;;15.63;8.50;;;4.40;96.60;;;;;;5040685;28;20184;-68
2022/02/28 07:07:49;;;;;;;11.70;8.73;;;4.50;96.50;;;;;;5042072;28;20546;-67
2022/02/28 07:10:15;;;;;;;17.10;9.40;;;4.30;96.80;;;;;;5039989;28;20670;-68
2022/02/28 07:12:41;;;;;;;13.23;9.20;;;4.30;96.90;;;;;;5040852;28;20180;-68
2022/02/28 07:15:08;;;;;;;12.87;8.70;;;4.40;96.80;;;;;;5039668;28;20475;-67
2022/02/28 07:17:34;;;;;;;13.30;9.70;;;4.20;96.60;;;;;;5040458;28;20822;-67
2022/02/28 07:20:00;;;;;;;17.27;10.77;;;4.20;97.10;;;;;;5036757;28;20461;-67
2022/02/28 07:22:25;;;;;;;14.50;9.60;;;4.30;97.20;;;;;;5040469;28;20199;-67
2022/02/28 07:24:51;;;;;;;12.83;9.50;;;4.20;97.30;;;;;;5040630;28;20195;-67
2022/02/28 07:27:17;;;;;;;12.70;9.67;;;4.30;97.20;;;;;;5040245;28;20199;-67
2022/02/28 07:29:42;;;;;;;13.93;9.93;;;4.40;97.40;;;;;;5040655;28;20200;-67
2022/02/28 07:32:08;;;;;;;15.40;8.93;;;4.30;97.50;;;;;;5037394;28;20620;-66
2022/02/28 07:34:33;;;;;;;14.73;10.30;;;4.10;97.50;;;;;;5041958;28;20536;-67
2022/02/28 07:36:59;;;;;;;15.73;9.57;;;4.20;97.80;;;;;;5042462;28;20183;-67
2022/02/28 07:39:26;;;;;;;15.10;9.50;;;4.30;97.80;;;;;;5021043;28;20200;-68
2022/02/28 07:41:58;;;;;;;12.57;8.90;;;4.40;97.70;;;;;;5040487;28;20191;-67
2022/02/28 07:44:24;;;;;;;13.10;10.43;;;4.30;98.10;;;;;;5044137;28;20501;-67
2022/02/28 07:46:49;;;;;;;17.60;10.53;;;4.40;98.10;;;;;;5040266;28;20590;-67
2022/02/28 07:49:15;;;;;;;14.20;9.90;;;4.50;97.90;;;;;;5040964;28;20213;-68
2022/02/28 07:51:41;;;;;;;14.53;10.73;;;4.70;97.60;;;;;;5041342;28;20664;-68
2022/02/28 07:54:06;;;;;;;13.57;9.30;;;4.80;97.40;;;;;;5038225;28;20319;-68
2022/02/28 07:56:32;;;;;;;12.77;9.27;;;4.90;97.20;;;;;;5039915;28;20273;-67
2022/02/28 07:58:57;;;;;;;18.00;10.67;;;5.00;97.20;;;;;;5041117;28;20222;-67
2022/02/28 08:01:23;;;;;;;15.00;10.40;;;5.00;97.30;;;;;;5039010;28;20183;-67
2022/02/28 08:03:50;;;;;;;17.00;10.37;;;4.90;96.70;;;;;;5039929;28;20319;-67
2022/02/28 08:06:15;;;;;;;13.40;9.70;;;4.90;97.60;;;;;;5043636;28;20537;-67
2022/02/28 08:08:41;;;;;;;14.20;10.20;;;5.00;97.20;;;;;;5040127;28;20265;-68
2022/02/28 08:11:06;;;;;;;16.37;10.33;;;5.10;96.80;;;;;;5042114;28;20191;-69
2022/02/28 08:13:32;;;;;;;12.90;9.17;;;5.30;96.50;;;;;;5040641;28;20184;-69
2022/02/28 08:16:00;;;;;;;12.83;9.13;;;5.30;96.50;;;;;;5045152;28;20230;-68
2022/02/28 08:18:25;;;;;;;17.10;9.70;;;5.40;96.50;;;;;;5041134;28;20267;-68
2022/02/28 08:20:53;;;;;;;13.83;9.90;;;5.20;96.60;;;;;;5023759;28;20487;-67
2022/02/28 08:23:19;;;;;;;12.87;9.97;;;5.30;96.50;;;;;;5039556;28;20302;-67
2022/02/28 08:25:45;;;;;;;14.97;11.30;;;5.50;96.30;;;;;;5041834;28;20513;-68
2022/02/28 08:28:14;;;;;;;16.13;10.27;;;5.40;95.70;;;;;;5037318;28;20200;-66
2022/02/28 08:30:39;;;;;;;12.33;9.43;;;5.40;95.90;;;;;;5035494;28;20965;-66
2022/02/28 08:33:05;;;;;;;13.00;10.33;;;5.60;95.60;;;;;;5009596;28;20430;-68
2022/02/28 08:35:31;;;;;;;14.10;10.27;;;5.50;95.30;;;;;;5035353;28;20206;-68
2022/02/28 08:37:57;;;;;;;13.03;9.60;;;5.60;95.90;;;;;;5041474;28;20183;-68
2022/02/28 08:40:22;;;;;;;16.00;10.07;;;5.70;95.60;;;;;;5022438;28;20261;-68
2022/02/28 08:42:48;;;;;;;14.40;9.90;;;5.80;95.30;;;;;;5041494;28;20470;-67
2022/02/28 08:45:14;;;;;;;13.57;9.40;;;5.70;95.20;;;;;;5038937;28;20350;-66
2022/02/28 08:47:40;;;;;;;16.10;10.80;;;5.80;94.90;;;;;;5038581;28;20187;-67
2022/02/28 08:50:07;;;;;;;13.10;9.97;;;5.80;95.30;;;;;;5037015;28;20216;-67
2022/02/28 08:52:34;;;;;;;18.23;11.67;;;5.80;95.00;;;;;;5039321;28;20810;-67
2022/02/28 08:55:03;;;;;;;15.37;10.17;;;5.80;94.90;;;;;;5014480;28;20429;-66
2022/02/28 08:57:29;;;;;;;15.00;9.87;;;5.90;94.50;;;;;;5039302;28;20442;-66
2022/02/28 08:59:55;;;;;;;16.43;10.10;;;5.90;94.30;;;;;;5038357;28;20474;-67
2022/02/28 09:02:22;;;;;;;14.10;10.80;;;6.00;94.40;;;;;;5038033;28;20476;-69
2022/02/28 09:04:47;;;;;;;14.27;10.17;;;6.00;94.50;;;;;;5039669;28;20192;-69
2022/02/28 09:07:13;;;;;;;15.87;10.00;;;6.10;94.50;;;;;;5041573;28;20457;-69
2022/02/28 09:09:39;;;;;;;12.90;9.43;;;6.30;94.40;;;;;;5034441;28;20597;-68
2022/02/28 09:12:05;;;;;;;12.60;9.10;;;6.40;94.10;;;;;;5047011;28;20195;-70
2022/02/28 09:14:30;;;;;;;12.90;9.57;;;6.40;93.70;;;;;;5041177;28;20292;-69
2022/02/28 09:16:56;;;;;;;15.03;10.50;;;6.50;93.30;;;;;;5041592;28;20854;-69
2022/02/28 09:19:21;;;;;;;12.43;8.93;;;6.50;93.20;;;;;;5042714;28;20226;-69
2022/02/28 09:21:49;;;;;;;11.87;9.57;;;6.60;92.90;;;;;;5045660;28;20554;-69
2022/02/28 09:24:15;;;;;;;15.43;10.80;;;6.70;92.60;;;;;;5048154;28;20297;-70
2022/02/28 09:26:42;;;;;;;11.50;8.57;;;6.70;92.50;;;;;;5043162;28;20438;-69
2022/02/28 09:29:08;;;;;;;12.47;9.50;;;6.70;92.20;;;;;;5044214;28;21009;-69
2022/02/28 09:31:34;;;;;;;13.00;9.57;;;6.80;91.50;;;;;;5043577;28;20440;-68
2022/02/28 09:33:59;;;;;;;13.13;9.23;;;6.80;91.40;;;;;;5043233;28;20449;-68
2022/02/28 09:36:25;;;;;;;12.57;8.87;;;7.00;91.10;;;;;;5028501;28;20437;-69
2022/02/28 09:38:51;;;;;;;14.07;10.20;;;7.10;91.20;;;;;;5028772;28;20215;-69
2022/02/28 09:41:19;;;;;;;11.73;8.87;;;7.00;90.50;;;;;;5043686;28;20439;-71
2022/02/28 09:43:45;;;;;;;14.00;9.90;;;7.10;90.60;;;;;;5043491;28;20698;-70
2022/02/28 09:46:11;;;;;;;12.13;9.10;;;7.20;90.50;;;;;;5042188;28;20438;-72
2022/02/28 09:48:38;;;;;;;14.70;10.07;;;7.30;90.30;;;;;;5042180;28;20657;-70
2022/02/28 09:51:04;;;;;;;14.50;9.40;;;7.30;92.40;;;;;;5042331;28;20434;-67
2022/02/28 09:53:30;;;;;;;21.17;14.50;;;7.40;90.50;;;;;;5042210;28;20448;-67
2022/02/28 09:55:56;;;;;;;14.87;10.23;;;7.40;90.80;;;;;;5041501;28;20196;-66
2022/02/28 09:58:32;;;;;;;12.23;9.67;;;7.50;90.20;;;;;;5041293;28;20657;-67
2022/02/28 10:00:59;;;;;;;11.20;9.67;;;7.70;90.00;;;;;;5040635;28;20186;-67
2022/02/28 10:03:29;;;;;;;13.50;9.50;;;7.80;89.90;;;;;;5041301;28;20461;-67
2022/02/28 10:06:01;;;;;;;16.23;10.17;;;7.80;88.60;;;;;;5041507;28;20440;-67
2022/02/28 10:08:42;;;;;;;12.23;8.87;;;7.80;88.30;;;;;;5042373;28;20558;-66
2022/02/28 10:11:32;;;;;;;12.67;9.40;;;7.90;87.50;;;;;;5040269;28;20447;-67
2022/02/28 10:14:03;;;;;;;16.47;9.30;;;8.10;88.30;;;;;;5041175;28;20862;-67
2022/02/28 10:16:35;;;;;;;12.87;9.40;;;8.10;85.60;;;;;;5041401;28;20900;-66
2022/02/28 10:19:03;;;;;;;12.30;9.70;;;8.00;85.80;;;;;;5043192;28;20524;-67
2022/02/28 10:21:45;;;;;;;13.77;8.93;;;8.10;86.00;;;;;;5043295;28;20449;-67
2022/02/28 10:24:15;;;;;;;11.03;8.37;;;8.10;85.50;;;;;;5042450;28;20530;-67
2022/02/28 10:26:46;;;;;;;12.17;8.40;;;8.30;85.00;;;;;;5038513;28;20435;-67
2022/02/28 10:29:15;;;;;;;12.17;10.03;;;8.20;84.60;;;;;;5041609;28;20712;-68
2022/02/28 10:31:42;;;;;;;13.63;9.07;;;8.30;84.70;;;;;;5033693;28;21080;-67
2022/02/28 10:34:19;;;;;;;13.77;9.80;;;8.40;84.20;;;;;;5038669;28;21251;-67
2022/02/28 10:36:57;;;;;;;12.93;9.40;;;8.40;83.20;;;;;;5038501;28;20438;-67
2022/02/28 10:39:35;;;;;;;14.20;9.37;;;8.40;84.00;;;;;;5042548;28;20473;-68
2022/02/28 10:42:19;;;;;;;11.27;8.80;;;8.40;83.40;;;;;;5045827;28;20454;-68
2022/02/28 10:44:45;;;;;;;15.37;9.17;;;8.40;84.00;;;;;;5025519;28;21244;-67
2022/02/28 10:47:12;;;;;;;15.20;9.90;;;8.50;83.40;;;;;;5036564;28;20430;-66
2022/02/28 10:49:39;;;;;;;12.63;9.20;;;8.60;83.80;;;;;;5041252;28;20207;-68
2022/02/28 10:52:12;;;;;;;10.30;8.30;;;8.70;83.10;;;;;;5023662;28;20426;-68
2022/02/28 10:54:46;;;;;;;13.13;9.20;;;8.70;83.30;;;;;;5037669;28;20525;-68
2022/02/28 10:57:16;;;;;;;12.53;10.50;;;8.70;82.30;;;;;;5041165;28;20508;-68
2022/02/28 10:59:44;;;;;;;12.37;8.80;;;8.70;82.10;;;;;;5026765;28;21145;-67
2022/02/28 11:02:21;;;;;;;11.90;8.90;;;8.80;82.30;;;;;;5019367;28;20473;-68
2022/02/28 11:04:49;;;;;;;13.40;8.93;;;8.80;82.10;;;;;;5034830;28;20537;-67
2022/02/28 11:07:23;;;;;;;13.90;9.20;;;8.90;81.80;;;;;;5038940;28;20446;-67
2022/02/28 11:09:49;;;;;;;12.77;9.17;;;8.80;81.40;;;;;;5037007;28;20460;-67
2022/02/28 11:12:30;;;;;;;12.40;8.73;;;8.90;81.60;;;;;;5020887;28;22186;-68
2022/02/28 11:14:59;;;;;;;14.90;9.70;;;8.90;80.70;;;;;;5034489;28;20176;-68
2022/02/28 11:17:27;;;;;;;10.67;8.57;;;8.90;80.90;;;;;;5013813;28;20444;-68
2022/02/28 11:19:54;;;;;;;10.73;8.10;;;9.00;80.20;;;;;;5036206;28;20455;-68
2022/02/28 11:22:20;;;;;;;14.43;8.83;;;9.10;79.40;;;;;;5037211;28;20431;-69
2022/02/28 11:24:47;;;;;;;14.10;8.97;;;9.10;77.60;;;;;;5037907;28;20418;-69
2022/02/28 11:27:14;;;;;;;8.93;8.03;;;9.10;78.00;;;;;;5035754;28;20449;-69
2022/02/28 11:29:41;;;;;;;13.77;10.07;;;9.10;77.90;;;;;;5033631;28;20533;-68
2022/02/28 11:32:08;;;;;;;12.10;9.23;;;9.20;78.80;;;;;;5035815;28;20422;-67
2022/02/28 11:34:35;;;;;;;14.17;9.37;;;9.30;78.80;;;;;;5020327;28;20434;-66
2022/02/28 11:37:04;;;;;;;12.03;8.70;;;9.30;77.60;;;;;;5033028;28;20524;-66
2022/02/28 11:39:30;;;;;;;12.40;9.00;;;9.50;77.80;;;;;;5036536;28;20454;-66
2022/02/28 11:42:01;;;;;;;11.90;8.47;;;9.60;77.30;;;;;;5035190;28;20449;-68
2022/02/28 11:44:27;;;;;;;13.07;8.90;;;9.70;77.10;;;;;;5038275;28;20207;-68
2022/02/28 11:47:04;;;;;;;12.93;9.93;;;9.70;76.20;;;;;;5035365;28;20427;-68
2022/02/28 11:49:44;;;;;;;12.30;9.30;;;9.80;76.90;;;;;;5034849;28;20252;-69
2022/02/28 11:52:36;;;;;;;15.50;9.70;;;9.80;76.20;;;;;;5037233;28;21014;-67
2022/02/28 11:55:05;;;;;;;12.53;8.93;;;10.00;73.80;;;;;;5036953;28;20434;-67
2022/02/28 11:57:54;;;;;;;14.87;9.37;;;10.10;73.30;;;;;;5037367;28;20433;-67
2022/02/28 12:00:40;;;;;;;13.87;9.27;;;10.20;73.10;;;;;;5037621;28;20457;-68
2022/02/28 12:03:21;;;;;;;12.80;9.60;;;10.40;73.20;;;;;;5035707;28;21287;-68
2022/02/28 12:05:47;;;;;;;18.20;10.87;;;10.50;71.60;;;;;;5036044;28;20971;-67
2022/02/28 12:08:17;;;;;;;20.07;9.67;;;10.70;70.90;;;;;;5036469;28;20449;-68
2022/02/28 12:10:55;;;;;;;13.93;9.93;;;11.00;71.30;;;;;;5009124;28;20207;-68
2022/02/28 12:13:36;;;;;;;12.63;9.93;;;11.40;69.00;;;;;;5037109;28;21095;-66
2022/02/28 12:19:46;;;;;;;13.90;10.40;;;12.70;66.10;;;;;;5030313;28;20524;-68
2022/02/28 12:22:11;;;;;;;13.83;9.90;;;13.20;64.30;;;;;;5038025;28;20442;-69
2022/02/28 12:24:52;;;;;;;14.40;10.27;;;13.70;62.20;;;;;;5034741;28;20850;-70
2022/02/28 12:27:18;;;;;;;14.37;10.13;;;14.40;60.90;;;;;;5033131;28;20194;-66
2022/02/28 12:29:44;;;;;;;13.23;10.60;;;14.80;58.90;;;;;;5036047;28;20449;-67
2022/02/28 12:32:10;;;;;;;12.10;10.57;;;15.30;57.70;;;;;;5033352;28;20191;-67
2022/02/28 12:34:36;;;;;;;13.03;10.63;;;15.80;56.20;;;;;;5033558;28;20448;-68
2022/02/28 12:37:02;;;;;;;16.20;10.87;;;16.70;54.40;;;;;;5031702;28;20438;-68
2022/02/28 12:39:28;;;;;;;11.97;10.40;;;17.20;53.50;;;;;;5019318;28;20810;-69
2022/02/28 12:41:56;;;;;;;13.07;10.83;;;17.60;52.70;;;;;;5022833;28;20427;-69
2022/02/28 12:44:23;;;;;;;13.90;10.70;;;18.20;50.50;;;;;;5040125;28;20291;-69
2022/02/28 12:46:53;;;;;;;13.80;10.97;;;18.70;49.60;;;;;;5042387;28;20465;-68
2022/02/28 12:49:23;;;;;;;15.20;11.10;;;19.20;47.80;;;;;;5040140;28;21147;-69